sensor_id;sensor_type;location;lat;lon;timestamp;P1;durP1;ratioP1;P2;durP2;ratioP2
65202;SDS011;51788;45.124;38.966;2023-01-15T00:01:35;20.42;;;11.02;;
65202;SDS011;51788;45.124;38.966;2023-01-15T00:04:02;28.20;;;13.10;;
65202;SDS011;51788;45.124;38.966;2023-01-15T00:06:31;16.77;;;10.88;;
65202;SDS011;51788;45.124;38.966;2023-01-15T00:09:02;31.58;;;12.23;;
65202;SDS011;51788;45.124;38.966;2023-01-15T00:11:28;26.42;;;12.48;;
65202;SDS011;51788;45.124;38.966;2023-01-15T00:13:54;18.08;;;11.73;;
65202;SDS011;51788;45.124;38.966;2023-01-15T00:16:21;20.17;;;12.00;;
65202;SDS011;51788;45.124;38.966;2023-01-15T00:18:49;19.92;;;12.68;;
65202;SDS011;51788;45.124;38.966;2023-01-15T00:21:16;17.85;;;11.45;;
65202;SDS011;51788;45.124;38.966;2023-01-15T00:23:43;25.80;;;15.07;;
65202;SDS011;51788;45.124;38.966;2023-01-15T00:26:28;36.22;;;12.13;;
65202;SDS011;51788;45.124;38.966;2023-01-15T00:29:14;32.15;;;14.05;;
65202;SDS011;51788;45.124;38.966;2023-01-15T00:31:41;19.80;;;10.75;;
65202;SDS011;51788;45.124;38.966;2023-01-15T00:34:08;25.08;;;11.07;;
65202;SDS011;51788;45.124;38.966;2023-01-15T00:36:34;22.33;;;12.85;;
65202;SDS011;51788;45.124;38.966;2023-01-15T00:39:05;34.30;;;14.93;;
65202;SDS011;51788;45.124;38.966;2023-01-15T00:41:31;20.67;;;11.10;;
65202;SDS011;51788;45.124;38.966;2023-01-15T00:43:57;25.80;;;13.80;;
65202;SDS011;51788;45.124;38.966;2023-01-15T00:46:23;31.73;;;12.18;;
65202;SDS011;51788;45.124;38.966;2023-01-15T00:48:49;20.70;;;11.30;;
65202;SDS011;51788;45.124;38.966;2023-01-15T00:51:15;19.30;;;12.10;;
65202;SDS011;51788;45.124;38.966;2023-01-15T00:53:41;23.27;;;12.77;;
65202;SDS011;51788;45.124;38.966;2023-01-15T00:56:07;33.05;;;15.60;;
65202;SDS011;51788;45.124;38.966;2023-01-15T00:58:33;29.88;;;11.90;;
65202;SDS011;51788;45.124;38.966;2023-01-15T01:00:59;38.00;;;17.88;;
65202;SDS011;51788;45.124;38.966;2023-01-15T01:03:26;20.45;;;12.88;;
65202;SDS011;51788;45.124;38.966;2023-01-15T01:05:52;23.52;;;12.82;;
65202;SDS011;51788;45.124;38.966;2023-01-15T01:08:23;18.70;;;12.55;;
65202;SDS011;51788;45.124;38.966;2023-01-15T01:10:49;21.45;;;11.23;;
65202;SDS011;51788;45.124;38.966;2023-01-15T01:13:24;18.73;;;10.85;;
65202;SDS011;51788;45.124;38.966;2023-01-15T01:15:50;21.00;;;11.75;;
65202;SDS011;51788;45.124;38.966;2023-01-15T01:18:16;27.40;;;14.40;;
65202;SDS011;51788;45.124;38.966;2023-01-15T01:20:42;25.38;;;13.70;;
65202;SDS011;51788;45.124;38.966;2023-01-15T01:23:08;25.85;;;13.35;;
65202;SDS011;51788;45.124;38.966;2023-01-15T01:25:34;21.52;;;9.98;;
65202;SDS011;51788;45.124;38.966;2023-01-15T01:28:00;25.48;;;12.73;;
65202;SDS011;51788;45.124;38.966;2023-01-15T01:30:26;28.23;;;13.48;;
65202;SDS011;51788;45.124;38.966;2023-01-15T01:32:52;28.20;;;14.00;;
65202;SDS011;51788;45.124;38.966;2023-01-15T01:35:18;20.83;;;10.95;;
65202;SDS011;51788;45.124;38.966;2023-01-15T01:37:47;9.40;;;7.78;;
65202;SDS011;51788;45.124;38.966;2023-01-15T01:40:15;23.35;;;11.98;;
65202;SDS011;51788;45.124;38.966;2023-01-15T01:42:41;14.05;;;10.93;;
65202;SDS011;51788;45.124;38.966;2023-01-15T01:45:11;17.98;;;9.35;;
65202;SDS011;51788;45.124;38.966;2023-01-15T01:47:38;19.48;;;10.90;;
65202;SDS011;51788;45.124;38.966;2023-01-15T01:50:09;22.10;;;11.48;;
65202;SDS011;51788;45.124;38.966;2023-01-15T01:52:45;17.60;;;9.68;;
65202;SDS011;51788;45.124;38.966;2023-01-15T01:55:19;23.67;;;12.57;;
65202;SDS011;51788;45.124;38.966;2023-01-15T01:57:47;22.25;;;12.38;;
65202;SDS011;51788;45.124;38.966;2023-01-15T02:00:16;29.58;;;12.45;;
65202;SDS011;51788;45.124;38.966;2023-01-15T02:02:43;18.55;;;11.43;;
65202;SDS011;51788;45.124;38.966;2023-01-15T02:05:20;28.65;;;16.50;;
65202;SDS011;51788;45.124;38.966;2023-01-15T02:07:53;31.50;;;14.48;;
65202;SDS011;51788;45.124;38.966;2023-01-15T02:10:20;23.88;;;14.02;;
65202;SDS011;51788;45.124;38.966;2023-01-15T02:12:51;27.85;;;10.77;;
65202;SDS011;51788;45.124;38.966;2023-01-15T02:15:31;31.77;;;14.52;;
65202;SDS011;51788;45.124;38.966;2023-01-15T02:18:05;23.60;;;14.07;;
65202;SDS011;51788;45.124;38.966;2023-01-15T02:20:42;22.55;;;10.52;;
65202;SDS011;51788;45.124;38.966;2023-01-15T02:25:58;30.67;;;13.40;;
65202;SDS011;51788;45.124;38.966;2023-01-15T02:28:36;33.22;;;16.60;;
65202;SDS011;51788;45.124;38.966;2023-01-15T02:33:45;24.15;;;15.07;;
65202;SDS011;51788;45.124;38.966;2023-01-15T02:36:16;22.63;;;9.98;;
65202;SDS011;51788;45.124;38.966;2023-01-15T02:38:47;17.88;;;10.73;;
65202;SDS011;51788;45.124;38.966;2023-01-15T02:41:17;23.42;;;12.05;;
65202;SDS011;51788;45.124;38.966;2023-01-15T02:43:47;25.95;;;13.27;;
65202;SDS011;51788;45.124;38.966;2023-01-15T02:46:16;24.30;;;13.10;;
65202;SDS011;51788;45.124;38.966;2023-01-15T02:48:48;12.93;;;10.07;;
65202;SDS011;51788;45.124;38.966;2023-01-15T02:51:19;15.45;;;10.45;;
65202;SDS011;51788;45.124;38.966;2023-01-15T02:53:48;22.17;;;11.48;;
65202;SDS011;51788;45.124;38.966;2023-01-15T02:56:19;22.60;;;12.43;;
65202;SDS011;51788;45.124;38.966;2023-01-15T02:58:51;19.15;;;11.00;;
65202;SDS011;51788;45.124;38.966;2023-01-15T03:01:30;17.90;;;11.77;;
65202;SDS011;51788;45.124;38.966;2023-01-15T03:09:37;23.45;;;12.63;;
65202;SDS011;51788;45.124;38.966;2023-01-15T03:17:35;24.58;;;13.57;;
65202;SDS011;51788;45.124;38.966;2023-01-15T03:20:18;18.38;;;11.75;;
65202;SDS011;51788;45.124;38.966;2023-01-15T03:22:55;28.20;;;13.65;;
65202;SDS011;51788;45.124;38.966;2023-01-15T03:25:29;22.30;;;12.90;;
65202;SDS011;51788;45.124;38.966;2023-01-15T03:28:01;21.15;;;12.85;;
65202;SDS011;51788;45.124;38.966;2023-01-15T03:30:29;30.63;;;12.77;;
65202;SDS011;51788;45.124;38.966;2023-01-15T03:32:55;17.20;;;10.50;;
65202;SDS011;51788;45.124;38.966;2023-01-15T03:38:22;19.60;;;9.65;;
65202;SDS011;51788;45.124;38.966;2023-01-15T03:40:56;13.70;;;9.85;;
65202;SDS011;51788;45.124;38.966;2023-01-15T03:43:27;13.50;;;9.57;;
65202;SDS011;51788;45.124;38.966;2023-01-15T03:46:11;17.67;;;9.18;;
65202;SDS011;51788;45.124;38.966;2023-01-15T03:54:14;18.85;;;11.10;;
65202;SDS011;51788;45.124;38.966;2023-01-15T03:56:49;22.02;;;10.75;;
65202;SDS011;51788;45.124;38.966;2023-01-15T03:59:26;17.73;;;9.77;;
65202;SDS011;51788;45.124;38.966;2023-01-15T04:02:00;20.27;;;12.55;;
65202;SDS011;51788;45.124;38.966;2023-01-15T04:04:29;24.80;;;12.15;;
65202;SDS011;51788;45.124;38.966;2023-01-15T04:06:58;19.30;;;10.82;;
65202;SDS011;51788;45.124;38.966;2023-01-15T04:09:25;19.90;;;11.15;;
65202;SDS011;51788;45.124;38.966;2023-01-15T04:11:58;28.98;;;15.20;;
65202;SDS011;51788;45.124;38.966;2023-01-15T04:14:26;27.15;;;13.75;;
65202;SDS011;51788;45.124;38.966;2023-01-15T04:16:56;27.65;;;12.80;;
65202;SDS011;51788;45.124;38.966;2023-01-15T04:19:23;43.03;;;21.73;;
65202;SDS011;51788;45.124;38.966;2023-01-15T04:21:57;25.25;;;15.10;;
65202;SDS011;51788;45.124;38.966;2023-01-15T04:24:23;19.77;;;13.35;;
65202;SDS011;51788;45.124;38.966;2023-01-15T04:26:49;38.05;;;14.68;;
65202;SDS011;51788;45.124;38.966;2023-01-15T04:29:15;17.88;;;12.25;;
65202;SDS011;51788;45.124;38.966;2023-01-15T04:31:41;20.42;;;13.38;;
65202;SDS011;51788;45.124;38.966;2023-01-15T04:34:07;26.48;;;13.60;;
65202;SDS011;51788;45.124;38.966;2023-01-15T04:36:33;17.85;;;12.10;;
65202;SDS011;51788;45.124;38.966;2023-01-15T04:39:03;20.25;;;12.77;;
65202;SDS011;51788;45.124;38.966;2023-01-15T04:41:29;22.63;;;11.43;;
65202;SDS011;51788;45.124;38.966;2023-01-15T04:44:14;23.83;;;11.88;;
65202;SDS011;51788;45.124;38.966;2023-01-15T04:46:41;22.95;;;12.20;;
65202;SDS011;51788;45.124;38.966;2023-01-15T04:49:10;18.63;;;11.38;;
65202;SDS011;51788;45.124;38.966;2023-01-15T04:51:37;17.77;;;11.02;;
65202;SDS011;51788;45.124;38.966;2023-01-15T04:54:04;34.38;;;11.95;;
65202;SDS011;51788;45.124;38.966;2023-01-15T04:56:31;14.07;;;10.13;;
65202;SDS011;51788;45.124;38.966;2023-01-15T04:59:01;20.25;;;12.43;;
65202;SDS011;51788;45.124;38.966;2023-01-15T05:01:27;21.65;;;12.82;;
65202;SDS011;51788;45.124;38.966;2023-01-15T05:03:53;26.50;;;11.70;;
65202;SDS011;51788;45.124;38.966;2023-01-15T05:06:19;30.10;;;13.63;;
65202;SDS011;51788;45.124;38.966;2023-01-15T05:08:45;36.60;;;11.88;;
65202;SDS011;51788;45.124;38.966;2023-01-15T05:11:11;23.20;;;12.38;;
65202;SDS011;51788;45.124;38.966;2023-01-15T05:13:37;20.95;;;11.68;;
65202;SDS011;51788;45.124;38.966;2023-01-15T05:16:10;22.60;;;11.80;;
65202;SDS011;51788;45.124;38.966;2023-01-15T05:18:41;24.33;;;11.55;;
65202;SDS011;51788;45.124;38.966;2023-01-15T05:23:54;20.92;;;10.20;;
65202;SDS011;51788;45.124;38.966;2023-01-15T05:26:21;27.98;;;12.45;;
65202;SDS011;51788;45.124;38.966;2023-01-15T05:28:48;18.33;;;11.23;;
65202;SDS011;51788;45.124;38.966;2023-01-15T05:31:15;18.98;;;11.00;;
65202;SDS011;51788;45.124;38.966;2023-01-15T05:33:43;33.97;;;12.82;;
65202;SDS011;51788;45.124;38.966;2023-01-15T05:36:10;19.35;;;11.05;;
65202;SDS011;51788;45.124;38.966;2023-01-15T05:38:38;28.30;;;12.45;;
65202;SDS011;51788;45.124;38.966;2023-01-15T05:41:05;22.90;;;12.32;;
65202;SDS011;51788;45.124;38.966;2023-01-15T05:43:53;31.27;;;12.93;;
65202;SDS011;51788;45.124;38.966;2023-01-15T05:46:20;25.02;;;14.57;;
65202;SDS011;51788;45.124;38.966;2023-01-15T05:48:46;22.58;;;13.75;;
65202;SDS011;51788;45.124;38.966;2023-01-15T05:51:12;23.33;;;14.63;;
65202;SDS011;51788;45.124;38.966;2023-01-15T05:53:38;23.50;;;13.95;;
65202;SDS011;51788;45.124;38.966;2023-01-15T05:56:04;32.35;;;15.05;;
65202;SDS011;51788;45.124;38.966;2023-01-15T05:58:30;22.77;;;13.90;;
65202;SDS011;51788;45.124;38.966;2023-01-15T06:00:57;29.33;;;12.43;;
65202;SDS011;51788;45.124;38.966;2023-01-15T06:03:23;23.48;;;14.52;;
65202;SDS011;51788;45.124;38.966;2023-01-15T06:05:51;26.50;;;14.00;;
65202;SDS011;51788;45.124;38.966;2023-01-15T06:08:17;25.38;;;14.70;;
65202;SDS011;51788;45.124;38.966;2023-01-15T06:10:43;32.35;;;15.85;;
65202;SDS011;51788;45.124;38.966;2023-01-15T06:13:09;29.92;;;15.73;;
65202;SDS011;51788;45.124;38.966;2023-01-15T06:15:35;25.90;;;16.52;;
65202;SDS011;51788;45.124;38.966;2023-01-15T06:18:01;32.15;;;15.73;;
65202;SDS011;51788;45.124;38.966;2023-01-15T06:20:27;24.40;;;14.23;;
65202;SDS011;51788;45.124;38.966;2023-01-15T06:22:53;30.67;;;15.10;;
65202;SDS011;51788;45.124;38.966;2023-01-15T06:25:19;29.60;;;15.73;;
65202;SDS011;51788;45.124;38.966;2023-01-15T06:27:45;32.28;;;16.17;;
65202;SDS011;51788;45.124;38.966;2023-01-15T06:30:13;31.60;;;14.38;;
65202;SDS011;51788;45.124;38.966;2023-01-15T06:32:41;29.35;;;15.07;;
65202;SDS011;51788;45.124;38.966;2023-01-15T06:35:07;24.20;;;16.60;;
65202;SDS011;51788;45.124;38.966;2023-01-15T06:37:34;32.88;;;18.15;;
65202;SDS011;51788;45.124;38.966;2023-01-15T06:40:00;29.85;;;18.65;;
65202;SDS011;51788;45.124;38.966;2023-01-15T06:42:26;26.63;;;14.35;;
65202;SDS011;51788;45.124;38.966;2023-01-15T06:45:10;32.17;;;16.83;;
65202;SDS011;51788;45.124;38.966;2023-01-15T06:47:55;28.65;;;16.85;;
65202;SDS011;51788;45.124;38.966;2023-01-15T06:50:23;32.85;;;17.45;;
65202;SDS011;51788;45.124;38.966;2023-01-15T06:52:50;30.13;;;17.23;;
65202;SDS011;51788;45.124;38.966;2023-01-15T06:55:16;30.02;;;17.05;;
65202;SDS011;51788;45.124;38.966;2023-01-15T06:57:43;33.80;;;16.52;;
65202;SDS011;51788;45.124;38.966;2023-01-15T07:00:10;44.38;;;18.00;;
65202;SDS011;51788;45.124;38.966;2023-01-15T07:02:36;28.40;;;17.17;;
65202;SDS011;51788;45.124;38.966;2023-01-15T07:05:05;32.45;;;18.70;;
65202;SDS011;51788;45.124;38.966;2023-01-15T07:07:32;36.83;;;20.88;;
65202;SDS011;51788;45.124;38.966;2023-01-15T07:09:58;37.30;;;21.83;;
65202;SDS011;51788;45.124;38.966;2023-01-15T07:12:24;35.88;;;17.30;;
65202;SDS011;51788;45.124;38.966;2023-01-15T07:14:51;32.90;;;19.52;;
65202;SDS011;51788;45.124;38.966;2023-01-15T07:17:17;33.50;;;19.58;;
65202;SDS011;51788;45.124;38.966;2023-01-15T07:19:43;39.13;;;20.27;;
65202;SDS011;51788;45.124;38.966;2023-01-15T07:22:10;43.45;;;21.05;;
65202;SDS011;51788;45.124;38.966;2023-01-15T07:24:36;44.13;;;24.95;;
65202;SDS011;51788;45.124;38.966;2023-01-15T07:27:02;34.15;;;19.85;;
65202;SDS011;51788;45.124;38.966;2023-01-15T07:29:29;34.50;;;18.27;;
65202;SDS011;51788;45.124;38.966;2023-01-15T07:31:55;35.90;;;20.20;;
65202;SDS011;51788;45.124;38.966;2023-01-15T07:34:20;34.08;;;17.15;;
65202;SDS011;51788;45.124;38.966;2023-01-15T07:36:47;36.28;;;19.80;;
65202;SDS011;51788;45.124;38.966;2023-01-15T07:39:13;32.80;;;18.58;;
65202;SDS011;51788;45.124;38.966;2023-01-15T07:41:39;39.13;;;18.85;;
65202;SDS011;51788;45.124;38.966;2023-01-15T07:44:23;40.83;;;20.58;;
65202;SDS011;51788;45.124;38.966;2023-01-15T07:47:20;36.47;;;20.23;;
65202;SDS011;51788;45.124;38.966;2023-01-15T07:50:08;40.75;;;22.83;;
65202;SDS011;51788;45.124;38.966;2023-01-15T07:55:04;38.80;;;21.25;;
65202;SDS011;51788;45.124;38.966;2023-01-15T07:57:32;36.67;;;19.92;;
65202;SDS011;51788;45.124;38.966;2023-01-15T07:59:59;46.00;;;26.83;;
65202;SDS011;51788;45.124;38.966;2023-01-15T08:02:25;48.78;;;24.50;;
65202;SDS011;51788;45.124;38.966;2023-01-15T08:04:51;41.20;;;23.02;;
65202;SDS011;51788;45.124;38.966;2023-01-15T08:07:17;49.70;;;24.67;;
65202;SDS011;51788;45.124;38.966;2023-01-15T08:09:43;41.17;;;23.83;;
65202;SDS011;51788;45.124;38.966;2023-01-15T08:12:10;49.33;;;26.10;;
65202;SDS011;51788;45.124;38.966;2023-01-15T08:14:55;44.10;;;23.83;;
65202;SDS011;51788;45.124;38.966;2023-01-15T08:17:40;57.42;;;28.13;;
65202;SDS011;51788;45.124;38.966;2023-01-15T08:20:17;66.05;;;29.92;;
65202;SDS011;51788;45.124;38.966;2023-01-15T08:22:46;61.60;;;28.80;;
65202;SDS011;51788;45.124;38.966;2023-01-15T08:25:13;58.55;;;26.75;;
65202;SDS011;51788;45.124;38.966;2023-01-15T08:27:41;55.75;;;22.42;;
65202;SDS011;51788;45.124;38.966;2023-01-15T08:30:09;63.47;;;24.45;;
65202;SDS011;51788;45.124;38.966;2023-01-15T08:32:40;38.95;;;20.55;;
65202;SDS011;51788;45.124;38.966;2023-01-15T08:35:07;36.38;;;19.27;;
65202;SDS011;51788;45.124;38.966;2023-01-15T08:37:33;46.20;;;22.30;;
65202;SDS011;51788;45.124;38.966;2023-01-15T08:39:59;46.95;;;24.73;;
65202;SDS011;51788;45.124;38.966;2023-01-15T08:42:25;45.58;;;25.52;;
65202;SDS011;51788;45.124;38.966;2023-01-15T08:44:51;49.20;;;23.67;;
65202;SDS011;51788;45.124;38.966;2023-01-15T08:47:17;51.83;;;23.98;;
65202;SDS011;51788;45.124;38.966;2023-01-15T08:49:43;45.13;;;20.98;;
65202;SDS011;51788;45.124;38.966;2023-01-15T08:52:10;41.08;;;22.80;;
65202;SDS011;51788;45.124;38.966;2023-01-15T08:54:36;57.38;;;21.85;;
65202;SDS011;51788;45.124;38.966;2023-01-15T08:57:02;36.75;;;19.83;;
65202;SDS011;51788;45.124;38.966;2023-01-15T08:59:28;49.78;;;23.52;;
65202;SDS011;51788;45.124;38.966;2023-01-15T09:01:54;49.22;;;19.60;;
65202;SDS011;51788;45.124;38.966;2023-01-15T09:04:20;50.88;;;22.08;;
65202;SDS011;51788;45.124;38.966;2023-01-15T09:06:47;40.13;;;20.73;;
65202;SDS011;51788;45.124;38.966;2023-01-15T09:09:13;43.10;;;21.98;;
65202;SDS011;51788;45.124;38.966;2023-01-15T09:11:40;55.88;;;25.13;;
65202;SDS011;51788;45.124;38.966;2023-01-15T09:14:07;44.40;;;23.02;;
65202;SDS011;51788;45.124;38.966;2023-01-15T09:16:34;50.58;;;22.42;;
65202;SDS011;51788;45.124;38.966;2023-01-15T09:19:01;47.08;;;25.85;;
65202;SDS011;51788;45.124;38.966;2023-01-15T09:21:28;38.92;;;18.55;;
65202;SDS011;51788;45.124;38.966;2023-01-15T09:23:53;36.35;;;17.98;;
65202;SDS011;51788;45.124;38.966;2023-01-15T09:26:27;43.25;;;21.27;;
65202;SDS011;51788;45.124;38.966;2023-01-15T09:29:00;38.53;;;19.60;;
65202;SDS011;51788;45.124;38.966;2023-01-15T09:31:27;43.30;;;22.88;;
65202;SDS011;51788;45.124;38.966;2023-01-15T09:33:53;47.38;;;22.45;;
65202;SDS011;51788;45.124;38.966;2023-01-15T09:36:27;46.35;;;23.50;;
65202;SDS011;51788;45.124;38.966;2023-01-15T09:38:54;40.65;;;20.50;;
65202;SDS011;51788;45.124;38.966;2023-01-15T09:41:21;33.42;;;18.05;;
65202;SDS011;51788;45.124;38.966;2023-01-15T09:44:11;39.25;;;16.05;;
65202;SDS011;51788;45.124;38.966;2023-01-15T09:47:12;48.10;;;18.55;;
65202;SDS011;51788;45.124;38.966;2023-01-15T09:55:26;28.77;;;15.05;;
65202;SDS011;51788;45.124;38.966;2023-01-15T09:57:59;25.88;;;15.63;;
65202;SDS011;51788;45.124;38.966;2023-01-15T10:00:28;31.50;;;17.58;;
65202;SDS011;51788;45.124;38.966;2023-01-15T10:05:49;45.78;;;21.17;;
65202;SDS011;51788;45.124;38.966;2023-01-15T10:08:29;27.70;;;15.93;;
65202;SDS011;51788;45.124;38.966;2023-01-15T10:11:03;36.42;;;16.15;;
65202;SDS011;51788;45.124;38.966;2023-01-15T10:16:30;28.08;;;14.32;;
65202;SDS011;51788;45.124;38.966;2023-01-15T10:18:58;31.30;;;14.43;;
65202;SDS011;51788;45.124;38.966;2023-01-15T10:27:01;34.88;;;14.13;;
65202;SDS011;51788;45.124;38.966;2023-01-15T10:29:45;20.58;;;13.00;;
65202;SDS011;51788;45.124;38.966;2023-01-15T10:43:36;22.98;;;11.55;;
65202;SDS011;51788;45.124;38.966;2023-01-15T10:46:20;33.90;;;16.27;;
65202;SDS011;51788;45.124;38.966;2023-01-15T10:48:55;20.52;;;10.93;;
65202;SDS011;51788;45.124;38.966;2023-01-15T10:51:39;33.38;;;14.35;;
65202;SDS011;51788;45.124;38.966;2023-01-15T10:54:14;20.85;;;12.52;;
65202;SDS011;51788;45.124;38.966;2023-01-15T10:56:59;19.15;;;12.95;;
65202;SDS011;51788;45.124;38.966;2023-01-15T11:02:37;27.25;;;13.68;;
65202;SDS011;51788;45.124;38.966;2023-01-15T11:05:16;28.30;;;12.90;;
65202;SDS011;51788;45.124;38.966;2023-01-15T11:07:45;23.98;;;12.88;;
65202;SDS011;51788;45.124;38.966;2023-01-15T11:10:14;25.10;;;13.48;;
65202;SDS011;51788;45.124;38.966;2023-01-15T11:15:56;18.02;;;11.85;;
65202;SDS011;51788;45.124;38.966;2023-01-15T11:18:41;19.98;;;12.32;;
65202;SDS011;51788;45.124;38.966;2023-01-15T11:21:27;17.85;;;9.30;;
65202;SDS011;51788;45.124;38.966;2023-01-15T11:23:55;23.48;;;11.13;;
65202;SDS011;51788;45.124;38.966;2023-01-15T11:26:27;24.67;;;12.63;;
65202;SDS011;51788;45.124;38.966;2023-01-15T11:28:55;28.27;;;13.50;;
65202;SDS011;51788;45.124;38.966;2023-01-15T11:31:34;21.73;;;11.23;;
65202;SDS011;51788;45.124;38.966;2023-01-15T11:34:02;24.92;;;11.02;;
65202;SDS011;51788;45.124;38.966;2023-01-15T11:36:30;24.67;;;11.68;;
65202;SDS011;51788;45.124;38.966;2023-01-15T11:38:57;19.83;;;12.13;;
65202;SDS011;51788;45.124;38.966;2023-01-15T11:41:30;29.65;;;13.88;;
65202;SDS011;51788;45.124;38.966;2023-01-15T11:44:17;36.78;;;15.07;;
65202;SDS011;51788;45.124;38.966;2023-01-15T11:47:02;28.77;;;12.95;;
65202;SDS011;51788;45.124;38.966;2023-01-15T11:49:50;18.95;;;11.65;;
65202;SDS011;51788;45.124;38.966;2023-01-15T11:52:37;18.15;;;11.55;;
65202;SDS011;51788;45.124;38.966;2023-01-15T11:55:10;23.63;;;12.15;;
65202;SDS011;51788;45.124;38.966;2023-01-15T11:57:38;14.73;;;10.27;;
65202;SDS011;51788;45.124;38.966;2023-01-15T12:00:05;21.48;;;11.57;;
65202;SDS011;51788;45.124;38.966;2023-01-15T12:02:46;25.33;;;10.65;;
65202;SDS011;51788;45.124;38.966;2023-01-15T12:05:17;37.50;;;13.68;;
65202;SDS011;51788;45.124;38.966;2023-01-15T12:07:48;21.17;;;10.65;;
65202;SDS011;51788;45.124;38.966;2023-01-15T12:10:21;22.08;;;11.68;;
65202;SDS011;51788;45.124;38.966;2023-01-15T12:19:00;26.00;;;13.70;;
65202;SDS011;51788;45.124;38.966;2023-01-15T12:29:59;27.70;;;12.70;;
65202;SDS011;51788;45.124;38.966;2023-01-15T12:32:36;18.70;;;11.05;;
65202;SDS011;51788;45.124;38.966;2023-01-15T12:35:12;22.95;;;9.90;;
65202;SDS011;51788;45.124;38.966;2023-01-15T12:37:48;38.13;;;16.08;;
65202;SDS011;51788;45.124;38.966;2023-01-15T12:40:30;24.85;;;13.25;;
65202;SDS011;51788;45.124;38.966;2023-01-15T12:43:08;29.15;;;13.02;;
65202;SDS011;51788;45.124;38.966;2023-01-15T12:45:59;23.40;;;13.13;;
65202;SDS011;51788;45.124;38.966;2023-01-15T12:51:17;24.80;;;13.80;;
65202;SDS011;51788;45.124;38.966;2023-01-15T13:04:51;43.90;;;17.33;;
65202;SDS011;51788;45.124;38.966;2023-01-15T13:07:41;44.05;;;18.48;;
65202;SDS011;51788;45.124;38.966;2023-01-15T13:15:53;41.03;;;19.25;;
65202;SDS011;51788;45.124;38.966;2023-01-15T13:21:20;29.98;;;16.52;;
65202;SDS011;51788;45.124;38.966;2023-01-15T13:29:18;37.33;;;20.65;;
65202;SDS011;51788;45.124;38.966;2023-01-15T13:32:24;44.20;;;24.50;;
65202;SDS011;51788;45.124;38.966;2023-01-15T13:37:42;38.90;;;21.80;;
65202;SDS011;51788;45.124;38.966;2023-01-15T13:40:22;41.75;;;23.40;;
65202;SDS011;51788;45.124;38.966;2023-01-15T13:43:01;53.95;;;28.23;;
65202;SDS011;51788;45.124;38.966;2023-01-15T13:45:37;63.58;;;30.67;;
65202;SDS011;51788;45.124;38.966;2023-01-15T13:48:07;65.60;;;31.13;;
65202;SDS011;51788;45.124;38.966;2023-01-15T13:50:40;59.25;;;31.30;;
65202;SDS011;51788;45.124;38.966;2023-01-15T13:53:16;48.70;;;26.08;;
65202;SDS011;51788;45.124;38.966;2023-01-15T13:55:54;58.53;;;27.45;;
65202;SDS011;51788;45.124;38.966;2023-01-15T13:58:24;56.35;;;25.00;;
65202;SDS011;51788;45.124;38.966;2023-01-15T14:01:05;45.13;;;23.23;;
65202;SDS011;51788;45.124;38.966;2023-01-15T14:03:35;40.00;;;22.17;;
65202;SDS011;51788;45.124;38.966;2023-01-15T14:06:06;39.10;;;21.40;;
65202;SDS011;51788;45.124;38.966;2023-01-15T14:08:40;42.88;;;21.75;;
65202;SDS011;51788;45.124;38.966;2023-01-15T14:29:03;46.88;;;25.10;;
65202;SDS011;51788;45.124;38.966;2023-01-15T14:32:01;52.75;;;24.77;;
65202;SDS011;51788;45.124;38.966;2023-01-15T14:34:37;57.30;;;27.95;;
65202;SDS011;51788;45.124;38.966;2023-01-15T14:39:47;55.08;;;26.92;;
65202;SDS011;51788;45.124;38.966;2023-01-15T14:45:07;52.50;;;27.48;;
65202;SDS011;51788;45.124;38.966;2023-01-15T14:48:14;65.63;;;30.40;;
65202;SDS011;51788;45.124;38.966;2023-01-15T14:51:12;90.63;;;36.72;;
65202;SDS011;51788;45.124;38.966;2023-01-15T14:53:41;73.63;;;38.93;;
65202;SDS011;51788;45.124;38.966;2023-01-15T14:56:19;81.82;;;38.15;;
65202;SDS011;51788;45.124;38.966;2023-01-15T15:04:18;87.10;;;39.72;;
65202;SDS011;51788;45.124;38.966;2023-01-15T15:06:47;75.53;;;40.90;;
65202;SDS011;51788;45.124;38.966;2023-01-15T15:09:39;90.15;;;40.35;;
65202;SDS011;51788;45.124;38.966;2023-01-15T15:12:25;80.63;;;42.65;;
65202;SDS011;51788;45.124;38.966;2023-01-15T15:20:22;99.57;;;46.40;;
65202;SDS011;51788;45.124;38.966;2023-01-15T15:23:07;102.57;;;48.85;;
65202;SDS011;51788;45.124;38.966;2023-01-15T15:25:58;102.68;;;49.65;;
65202;SDS011;51788;45.124;38.966;2023-01-15T15:28:26;120.28;;;55.05;;
65202;SDS011;51788;45.124;38.966;2023-01-15T15:30:53;102.72;;;54.22;;
65202;SDS011;51788;45.124;38.966;2023-01-15T15:33:21;109.30;;;54.42;;
65202;SDS011;51788;45.124;38.966;2023-01-15T15:35:54;107.65;;;49.85;;
65202;SDS011;51788;45.124;38.966;2023-01-15T15:38:23;102.82;;;51.78;;
65202;SDS011;51788;45.124;38.966;2023-01-15T15:40:51;101.90;;;46.30;;
65202;SDS011;51788;45.124;38.966;2023-01-15T15:43:21;91.00;;;40.75;;
65202;SDS011;51788;45.124;38.966;2023-01-15T15:46:21;91.50;;;38.97;;
65202;SDS011;51788;45.124;38.966;2023-01-15T15:49:08;94.15;;;47.20;;
65202;SDS011;51788;45.124;38.966;2023-01-15T15:51:44;85.80;;;41.00;;
65202;SDS011;51788;45.124;38.966;2023-01-15T15:59:15;83.45;;;37.90;;
65202;SDS011;51788;45.124;38.966;2023-01-15T16:01:48;93.43;;;40.42;;
65202;SDS011;51788;45.124;38.966;2023-01-15T16:04:15;93.85;;;42.95;;
65202;SDS011;51788;45.124;38.966;2023-01-15T16:06:43;208.88;;;98.10;;
65202;SDS011;51788;45.124;38.966;2023-01-15T16:09:09;113.45;;;58.30;;
65202;SDS011;51788;45.124;38.966;2023-01-15T16:11:34;104.85;;;52.67;;
65202;SDS011;51788;45.124;38.966;2023-01-15T16:14:04;82.70;;;40.90;;
65202;SDS011;51788;45.124;38.966;2023-01-15T16:16:32;70.75;;;39.22;;
65202;SDS011;51788;45.124;38.966;2023-01-15T16:18:59;80.45;;;38.17;;
65202;SDS011;51788;45.124;38.966;2023-01-15T16:21:28;64.95;;;34.65;;
65202;SDS011;51788;45.124;38.966;2023-01-15T16:23:57;101.82;;;52.83;;
65202;SDS011;51788;45.124;38.966;2023-01-15T16:26:51;145.38;;;71.15;;
65202;SDS011;51788;45.124;38.966;2023-01-15T16:29:32;123.35;;;62.58;;
65202;SDS011;51788;45.124;38.966;2023-01-15T16:32:00;113.80;;;49.95;;
65202;SDS011;51788;45.124;38.966;2023-01-15T16:34:33;113.93;;;56.17;;
65202;SDS011;51788;45.124;38.966;2023-01-15T16:37:00;107.78;;;53.15;;
65202;SDS011;51788;45.124;38.966;2023-01-15T16:42:03;97.55;;;46.55;;
65202;SDS011;51788;45.124;38.966;2023-01-15T16:46:58;88.15;;;43.50;;
65202;SDS011;51788;45.124;38.966;2023-01-15T16:49:27;88.13;;;44.67;;
65202;SDS011;51788;45.124;38.966;2023-01-15T16:51:56;98.57;;;45.25;;
65202;SDS011;51788;45.124;38.966;2023-01-15T17:01:51;90.50;;;38.40;;
65202;SDS011;51788;45.124;38.966;2023-01-15T17:07:14;88.65;;;42.85;;
65202;SDS011;51788;45.124;38.966;2023-01-15T17:09:47;88.45;;;43.17;;
65202;SDS011;51788;45.124;38.966;2023-01-15T17:14:51;153.48;;;72.20;;
65202;SDS011;51788;45.124;38.966;2023-01-15T17:19:46;129.18;;;64.93;;
65202;SDS011;51788;45.124;38.966;2023-01-15T17:22:23;121.10;;;60.00;;